Time;durP1;ratioP1;P1;durP2;ratioP2;P2;SDS_P1;SDS_P2;PMS_P1;PMS_P2;Temp;Humidity;BMP_temperature;BMP_pressure;BME280_temperature;BME280_humidity;BME280_pressure;Samples;Min_cycle;Max_cycle;Signal;HPM_P1;HPM_P2
2022/07/30 00:00:17;;;;;;;5.78;2.22;;;25.00;58.80;;;;;;10058229;28;20306;-61
2022/07/30 00:05:08;;;;;;;3.78;2.70;;;25.00;58.10;;;;;;10053627;28;20037;-62
2022/07/30 00:09:58;;;;;;;7.20;2.85;;;25.00;58.20;;;;;;10052687;28;20050;-62
2022/07/30 00:14:50;;;;;;;4.80;2.70;;;24.90;58.20;;;;;;10063078;28;20070;-62
2022/07/30 00:19:41;;;;;;;3.22;2.60;;;24.90;58.40;;;;;;10059757;28;20030;-61
2022/07/30 00:24:32;;;;;;;6.80;2.33;;;24.70;58.70;;;;;;10059942;28;20295;-58
2022/07/30 00:29:24;;;;;;;5.38;2.38;;;25.00;58.40;;;;;;10049837;28;20029;-61
2022/07/30 00:34:14;;;;;;;4.65;2.90;;;24.80;58.60;;;;;;10072164;28;20017;-60
2022/07/30 00:39:05;;;;;;;5.68;2.50;;;24.70;58.60;;;;;;10069819;28;20028;-62
2022/07/30 00:43:56;;;;;;;3.53;2.85;;;24.70;58.90;;;;;;10052971;28;20065;-60
2022/07/30 00:48:46;;;;;;;3.72;2.30;;;24.50;59.00;;;;;;10062828;28;20073;-60
2022/07/30 00:53:37;;;;;;;5.63;3.13;;;24.60;59.10;;;;;;10057001;28;20206;-60
2022/07/30 00:58:28;;;;;;;4.30;2.88;;;24.40;59.40;;;;;;10069253;28;20335;-63
2022/07/30 01:03:19;;;;;;;5.10;2.72;;;24.40;59.40;;;;;;10071444;28;20036;-60
2022/07/30 01:08:09;;;;;;;5.82;3.00;;;24.40;59.50;;;;;;10071702;28;20033;-61
2022/07/30 01:13:00;;;;;;;3.80;2.60;;;24.30;59.70;;;;;;10052656;28;20053;-61
2022/07/30 01:17:55;;;;;;;5.70;2.42;;;24.30;59.40;;;;;;10064022;28;20040;-61
2022/07/30 01:23:26;;;;;;;8.57;2.67;;;24.30;59.60;;;;;;10056569;28;20029;-62
2022/07/30 01:28:22;;;;;;;3.83;3.13;;;24.30;59.80;;;;;;10072361;28;20048;-61
2022/07/30 01:33:17;;;;;;;3.65;2.58;;;24.20;59.80;;;;;;10058791;28;20061;-62
2022/07/30 01:38:11;;;;;;;4.75;4.07;;;24.10;59.80;;;;;;10057644;28;20400;-60
2022/07/30 01:43:02;;;;;;;5.43;2.75;;;24.10;60.00;;;;;;10073080;28;20113;-61
2022/07/30 01:47:59;;;;;;;2.63;2.22;;;24.10;60.10;;;;;;10064458;28;20034;-60
2022/07/30 01:52:52;;;;;;;3.75;2.20;;;24.00;60.30;;;;;;10059966;28;20044;-60
2022/07/30 01:57:47;;;;;;;4.28;2.85;;;24.10;60.10;;;;;;10076154;28;20036;-60
2022/07/30 02:02:39;;;;;;;2.93;2.00;;;24.20;60.00;;;;;;10076095;28;20080;-60
2022/07/30 02:08:00;;;;;;;5.30;2.30;;;24.00;60.20;;;;;;10071101;28;20049;-61
2022/07/30 02:12:54;;;;;;;5.25;2.15;;;24.10;60.10;;;;;;10051249;28;20068;-61
2022/07/30 02:18:04;;;;;;;3.22;2.65;;;23.90;60.40;;;;;;10066505;28;20029;-61
2022/07/30 02:23:01;;;;;;;5.20;2.88;;;23.90;60.50;;;;;;10047237;28;20029;-61
2022/07/30 02:27:59;;;;;;;4.30;2.88;;;23.70;60.90;;;;;;10051964;28;20050;-60
2022/07/30 02:32:50;;;;;;;6.53;2.85;;;23.70;61.00;;;;;;10070908;28;20037;-60
2022/07/30 02:37:42;;;;;;;2.60;2.33;;;23.60;61.10;;;;;;10080761;28;20352;-61
2022/07/30 02:42:33;;;;;;;8.13;2.92;;;23.60;61.30;;;;;;10066152;28;20083;-62
2022/07/30 02:47:25;;;;;;;5.13;2.72;;;23.60;61.30;;;;;;10063431;28;20025;-62
2022/07/30 02:52:17;;;;;;;4.20;2.60;;;23.40;61.70;;;;;;10058694;28;20030;-63
2022/07/30 02:57:09;;;;;;;4.57;2.40;;;23.30;62.00;;;;;;10072646;28;20033;-63
2022/07/30 03:02:02;;;;;;;4.85;3.03;;;23.30;62.10;;;;;;10066898;28;20042;-61
2022/07/30 03:06:54;;;;;;;4.60;2.85;;;23.10;62.30;;;;;;10057655;28;20025;-61
2022/07/30 03:11:48;;;;;;;6.93;3.58;;;23.20;62.40;;;;;;10069106;28;20344;-61
2022/07/30 03:16:42;;;;;;;3.60;2.78;;;23.20;62.50;;;;;;10062410;28;20087;-61
2022/07/30 03:21:35;;;;;;;2.73;2.53;;;23.00;63.00;;;;;;10053385;28;20034;-61
2022/07/30 03:26:27;;;;;;;3.83;2.78;;;23.00;62.90;;;;;;10063483;28;20022;-61
2022/07/30 03:31:18;;;;;;;3.65;3.03;;;23.00;63.30;;;;;;10047495;28;20034;-61
2022/07/30 03:36:12;;;;;;;5.20;2.50;;;22.90;63.40;;;;;;10046695;28;20340;-61
2022/07/30 03:41:05;;;;;;;3.00;2.67;;;22.90;63.50;;;;;;10065247;28;20159;-61
2022/07/30 03:45:57;;;;;;;4.80;2.67;;;22.90;63.50;;;;;;10060172;28;20112;-61
2022/07/30 03:50:48;;;;;;;3.47;2.50;;;22.80;63.70;;;;;;10054583;28;20034;-61
2022/07/30 03:55:41;;;;;;;5.22;2.75;;;22.80;63.90;;;;;;10071927;28;20507;-63
2022/07/30 04:00:32;;;;;;;3.10;2.50;;;22.90;63.90;;;;;;10073652;28;20029;-62
2022/07/30 04:05:22;;;;;;;2.83;2.63;;;22.80;64.10;;;;;;10088709;28;20055;-61
2022/07/30 04:10:14;;;;;;;6.38;2.65;;;22.60;64.20;;;;;;10049533;28;20052;-61
2022/07/30 04:15:06;;;;;;;5.80;4.00;;;22.80;64.30;;;;;;10062805;28;20056;-62
2022/07/30 04:20:06;;;;;;;6.53;4.97;;;22.80;64.30;;;;;;10062124;28;20037;-62
2022/07/30 04:24:58;;;;;;;7.28;4.10;;;22.70;64.60;;;;;;10073143;28;20029;-62
2022/07/30 04:29:50;;;;;;;8.50;4.32;;;22.60;64.60;;;;;;10067221;28;20041;-62
2022/07/30 04:34:48;;;;;;;6.40;4.82;;;22.60;65.00;;;;;;10068389;28;20106;-61
2022/07/30 04:39:39;;;;;;;26.17;12.82;;;22.70;64.80;;;;;;10080914;28;20316;-61
2022/07/30 04:44:30;;;;;;;21.17;11.82;;;22.60;65.00;;;;;;10062505;28;20017;-61
2022/07/30 04:49:22;;;;;;;8.77;6.20;;;22.50;65.40;;;;;;10063795;28;20186;-61
2022/07/30 04:54:13;;;;;;;8.25;4.82;;;22.50;65.50;;;;;;10058667;28;20092;-61
2022/07/30 04:59:05;;;;;;;9.93;4.03;;;22.50;65.60;;;;;;10058996;28;20034;-65
2022/07/30 05:03:59;;;;;;;4.60;3.33;;;22.60;65.60;;;;;;10069357;28;20021;-62
2022/07/30 05:08:50;;;;;;;6.70;3.20;;;22.70;65.80;;;;;;10075640;28;20033;-63
2022/07/30 05:13:42;;;;;;;4.07;2.90;;;22.80;65.60;;;;;;10060932;28;20352;-64
2022/07/30 05:18:33;;;;;;;5.38;3.53;;;22.60;65.80;;;;;;10074567;28;20048;-61
2022/07/30 05:23:23;;;;;;;4.85;2.85;;;22.60;65.90;;;;;;10065283;28;20116;-62
2022/07/30 05:28:14;;;;;;;4.93;2.70;;;22.80;65.90;;;;;;10056372;28;20351;-60
2022/07/30 05:33:05;;;;;;;3.83;2.53;;;22.70;65.90;;;;;;10053535;28;20033;-63
2022/07/30 05:37:55;;;;;;;6.63;3.13;;;22.70;66.30;;;;;;10065422;28;20033;-60
2022/07/30 05:42:46;;;;;;;5.80;2.90;;;22.80;66.40;;;;;;10056194;28;20025;-62
2022/07/30 05:47:37;;;;;;;3.70;3.35;;;22.80;66.30;;;;;;10061920;28;20273;-64
2022/07/30 05:52:27;;;;;;;7.25;2.90;;;22.80;66.50;;;;;;10069690;28;20025;-62
2022/07/30 05:57:18;;;;;;;4.70;3.08;;;22.80;66.80;;;;;;10070489;28;20116;-61
2022/07/30 06:02:09;;;;;;;3.88;2.35;;;23.00;66.80;;;;;;10046614;28;20242;-62
2022/07/30 06:07:00;;;;;;;3.25;2.72;;;23.00;67.00;;;;;;10068337;28;20040;-62
2022/07/30 06:11:50;;;;;;;4.75;3.13;;;23.00;67.10;;;;;;10055435;28;20053;-62
2022/07/30 06:16:41;;;;;;;3.97;2.63;;;23.00;67.00;;;;;;10065087;28;20462;-64
2022/07/30 06:21:31;;;;;;;6.30;2.38;;;23.20;67.10;;;;;;10053046;28;20088;-62
2022/07/30 06:26:22;;;;;;;4.55;2.60;;;23.20;67.00;;;;;;10043910;28;20022;-60
2022/07/30 06:31:13;;;;;;;7.68;2.58;;;23.40;67.10;;;;;;10053924;28;20064;-60
2022/07/30 06:36:04;;;;;;;4.57;2.47;;;23.40;67.20;;;;;;10047342;28;20076;-60
2022/07/30 06:40:55;;;;;;;5.22;2.42;;;23.40;67.20;;;;;;10081425;28;20174;-63
2022/07/30 06:45:46;;;;;;;3.08;2.25;;;23.40;67.30;;;;;;10069408;28;20300;-63
2022/07/30 06:50:36;;;;;;;3.63;2.90;;;23.50;67.30;;;;;;10073617;28;20228;-63
2022/07/30 06:55:27;;;;;;;4.07;1.95;;;23.60;66.90;;;;;;10061320;28;20024;-62
2022/07/30 07:00:18;;;;;;;3.03;2.17;;;23.80;66.80;;;;;;10059424;28;20033;-62
2022/07/30 07:05:09;;;;;;;6.57;2.42;;;23.90;66.70;;;;;;10063614;28;20113;-62
2022/07/30 07:10:00;;;;;;;5.43;2.55;;;24.10;66.50;;;;;;10057583;28;20041;-63
2022/07/30 07:14:51;;;;;;;4.90;2.50;;;24.10;66.30;;;;;;10067594;28;20060;-62
2022/07/30 07:19:42;;;;;;;4.20;2.20;;;24.10;66.30;;;;;;10063852;28;20033;-61
2022/07/30 07:24:32;;;;;;;4.82;2.45;;;24.30;66.20;;;;;;10054196;28;20030;-63
2022/07/30 07:29:23;;;;;;;4.38;2.58;;;24.40;66.00;;;;;;10059561;28;20104;-62
2022/07/30 07:34:14;;;;;;;5.20;2.90;;;24.50;65.60;;;;;;10064003;28;20056;-64
2022/07/30 07:39:08;;;;;;;4.95;2.10;;;24.50;65.50;;;;;;10073288;28;20151;-62
2022/07/30 07:43:59;;;;;;;4.55;2.42;;;24.60;65.30;;;;;;10058667;28;20127;-64
2022/07/30 07:48:49;;;;;;;4.18;2.70;;;24.80;65.30;;;;;;10057557;28;20105;-66
2022/07/30 07:53:40;;;;;;;2.70;2.50;;;25.00;64.90;;;;;;10050323;28;20029;-65
2022/07/30 07:58:31;;;;;;;4.68;2.28;;;25.10;64.60;;;;;;10072899;28;20034;-64
2022/07/30 08:03:22;;;;;;;3.15;2.05;;;25.30;64.30;;;;;;10082248;28;20030;-66
2022/07/30 08:08:12;;;;;;;2.80;1.77;;;25.30;64.20;;;;;;10079084;28;20128;-64
2022/07/30 08:13:04;;;;;;;3.50;2.25;;;25.20;64.20;;;;;;10065375;28;20049;-60
2022/07/30 08:17:54;;;;;;;3.15;2.05;;;25.40;64.00;;;;;;10076553;28;20037;-61
2022/07/30 08:22:45;;;;;;;2.47;2.00;;;25.50;63.60;;;;;;10081855;28;20283;-61
2022/07/30 08:27:36;;;;;;;3.55;2.20;;;25.60;63.30;;;;;;10079219;28;20033;-65
2022/07/30 08:32:26;;;;;;;3.75;2.08;;;25.60;62.90;;;;;;10080290;28;20280;-66
2022/07/30 08:37:17;;;;;;;3.38;2.25;;;25.80;62.40;;;;;;10065845;28;20088;-67
2022/07/30 08:42:08;;;;;;;2.28;2.00;;;25.90;62.20;;;;;;10075540;28;20317;-67
2022/07/30 08:47:00;;;;;;;4.82;2.33;;;26.00;62.00;;;;;;10053435;28;20084;-67
2022/07/30 08:51:51;;;;;;;2.00;1.90;;;26.00;61.70;;;;;;10076515;28;20120;-67
2022/07/30 08:56:43;;;;;;;2.25;1.77;;;26.10;61.40;;;;;;10066410;28;20045;-67
2022/07/30 09:01:33;;;;;;;2.70;1.80;;;26.10;61.00;;;;;;10061639;28;20240;-68
2022/07/30 09:06:24;;;;;;;5.43;3.38;;;26.20;60.70;;;;;;10082204;28;20040;-68
2022/07/30 09:11:15;;;;;;;4.60;2.90;;;26.30;60.30;;;;;;10067758;28;20223;-69
2022/07/30 09:16:06;;;;;;;2.42;2.10;;;26.30;60.00;;;;;;10060391;28;20308;-68
2022/07/30 09:21:24;;;;;;;5.38;2.28;;;26.40;59.80;;;;;;10070645;28;20040;-68
2022/07/30 09:26:15;;;;;;;4.63;2.25;;;26.40;59.40;;;;;;10075209;28;20044;-66
2022/07/30 09:31:06;;;;;;;4.35;1.88;;;26.60;59.10;;;;;;10073564;28;20038;-66
2022/07/30 09:35:56;;;;;;;4.70;2.17;;;26.60;58.90;;;;;;10058368;28;20032;-68
2022/07/30 09:40:51;;;;;;;3.10;1.90;;;26.70;58.60;;;;;;10071329;28;20018;-68
2022/07/30 09:46:00;;;;;;;3.50;1.95;;;26.90;58.30;;;;;;10057575;28;20021;-67
2022/07/30 09:50:53;;;;;;;2.00;1.83;;;27.00;58.10;;;;;;10079536;28;20492;-68
2022/07/30 09:55:44;;;;;;;5.00;2.30;;;27.20;57.80;;;;;;10068712;28;20053;-67
2022/07/30 10:00:35;;;;;;;3.53;1.77;;;27.20;57.60;;;;;;10063429;28;20024;-69
2022/07/30 10:05:26;;;;;;;2.53;2.05;;;27.30;57.40;;;;;;10065653;28;20044;-68
2022/07/30 10:10:29;;;;;;;3.05;2.00;;;27.30;57.20;;;;;;10064774;28;20096;-66
2022/07/30 10:15:20;;;;;;;4.28;2.33;;;27.40;56.40;;;;;;10067653;28;20075;-67
2022/07/30 10:20:11;;;;;;;4.10;2.35;;;27.50;56.30;;;;;;10068324;28;20037;-67
2022/07/30 10:25:03;;;;;;;3.33;1.90;;;27.60;56.10;;;;;;10072046;28;20143;-69
2022/07/30 10:29:55;;;;;;;3.97;1.80;;;27.70;55.80;;;;;;10052791;28;20117;-67
2022/07/30 10:34:46;;;;;;;6.05;2.10;;;28.10;55.40;;;;;;10060676;28;20022;-68
2022/07/30 10:39:43;;;;;;;3.45;2.00;;;28.30;54.90;;;;;;10053371;28;20044;-66
2022/07/30 10:45:18;;;;;;;5.70;2.65;;;28.30;54.70;;;;;;10073181;28;20071;-67
2022/07/30 10:50:11;;;;;;;;;;;28.40;54.20;;;;;;10012646;28;20041;-67
2022/07/30 10:55:01;;;;;;;4.82;2.63;;;28.50;53.90;;;;;;10069667;28;19901;-67
2022/07/30 10:59:57;;;;;;;2.45;1.80;;;28.20;54.50;;;;;;10054973;28;20025;-67
2022/07/30 11:04:48;;;;;;;2.97;1.65;;;28.30;54.00;;;;;;10055763;28;20047;-67
2022/07/30 11:09:41;;;;;;;4.03;1.63;;;28.30;53.70;;;;;;10058643;28;20416;-67
2022/07/30 11:14:47;;;;;;;4.38;2.78;;;28.40;53.70;;;;;;10062232;28;20065;-67
2022/07/30 11:20:10;;;;;;;3.10;1.65;;;28.60;53.30;;;;;;10055572;28;20022;-67
2022/07/30 11:25:00;;;;;;;5.25;2.00;;;28.70;52.70;;;;;;10057741;28;20046;-68
2022/07/30 11:29:51;;;;;;;5.22;1.80;;;28.60;52.90;;;;;;10055580;28;20072;-67
2022/07/30 11:34:42;;;;;;;2.38;1.80;;;28.80;52.10;;;;;;10064751;28;20033;-67
2022/07/30 11:39:53;;;;;;;3.22;2.13;;;29.10;51.70;;;;;;10061549;28;20229;-67
2022/07/30 11:44:45;;;;;;;2.70;1.77;;;28.90;50.70;;;;;;10056628;28;20026;-67
2022/07/30 11:49:36;;;;;;;1.92;1.30;;;29.10;50.40;;;;;;10048386;28;20037;-67
2022/07/30 11:54:27;;;;;;;5.30;2.00;;;29.30;50.10;;;;;;10052575;28;20434;-67
2022/07/30 11:59:17;;;;;;;3.75;1.40;;;29.60;49.80;;;;;;10059878;28;20036;-68
2022/07/30 12:04:08;;;;;;;1.38;1.27;;;29.50;49.90;;;;;;10070352;28;20034;-66
2022/07/30 12:08:59;;;;;;;2.85;1.50;;;29.50;49.50;;;;;;10052759;28;20148;-67
2022/07/30 12:13:58;;;;;;;2.95;1.73;;;29.10;49.50;;;;;;10052065;28;20364;-66
2022/07/30 12:18:49;;;;;;;2.72;1.70;;;29.10;49.50;;;;;;10067782;28;20060;-67
2022/07/30 12:23:42;;;;;;;3.80;2.05;;;29.20;49.20;;;;;;10061096;28;20033;-67
2022/07/30 12:28:34;;;;;;;1.50;1.40;;;30.30;49.00;;;;;;10065263;28;20040;-68
2022/07/30 12:33:25;;;;;;;2.53;1.75;;;31.00;48.40;;;;;;10080063;28;20508;-67
2022/07/30 12:38:17;;;;;;;1.67;1.40;;;31.00;48.90;;;;;;10074318;28;20026;-66
2022/07/30 12:43:10;;;;;;;4.00;1.35;;;31.00;48.00;;;;;;10067527;28;20025;-67
2022/07/30 12:48:00;;;;;;;2.40;1.80;;;30.20;47.70;;;;;;10055485;28;20095;-67
2022/07/30 12:52:53;;;;;;;3.63;1.60;;;30.10;48.10;;;;;;10072216;28;20033;-68
2022/07/30 12:57:54;;;;;;;3.70;2.25;;;31.00;48.00;;;;;;10072453;28;20025;-68
2022/07/30 13:02:45;;;;;;;3.58;1.40;;;30.70;47.60;;;;;;10055272;28;20029;-66
2022/07/30 13:07:52;;;;;;;3.80;1.75;;;31.70;47.90;;;;;;10076126;28;20028;-68
2022/07/30 13:12:44;;;;;;;1.38;1.20;;;33.10;47.50;;;;;;10057623;28;20049;-68
2022/07/30 13:17:34;;;;;;;4.32;1.80;;;34.30;46.50;;;;;;10068447;28;20025;-66
2022/07/30 13:22:25;;;;;;;7.43;2.23;;;35.30;45.50;;;;;;10065520;28;20033;-67
2022/07/30 13:27:16;;;;;;;4.13;1.40;;;33.30;45.60;;;;;;10065479;28;20229;-66
2022/07/30 13:32:07;;;;;;;2.37;1.30;;;34.60;44.30;;;;;;10064984;28;20006;-68
2022/07/30 13:36:57;;;;;;;3.78;1.85;;;33.60;43.90;;;;;;10062951;28;20274;-67
2022/07/30 13:41:48;;;;;;;2.72;1.55;;;33.00;43.80;;;;;;10067999;28;20056;-67
2022/07/30 13:46:40;;;;;;;6.20;2.78;;;32.90;44.10;;;;;;10060157;28;20033;-66
2022/07/30 13:51:31;;;;;;;1.73;1.30;;;32.90;43.10;;;;;;10059932;28;20093;-68
2022/07/30 13:56:22;;;;;;;4.07;1.35;;;33.30;43.40;;;;;;10061808;28;20018;-68
2022/07/30 14:01:13;;;;;;;2.60;1.47;;;35.60;42.00;;;;;;10075730;28;20151;-68
2022/07/30 14:06:04;;;;;;;2.95;1.17;;;36.90;41.40;;;;;;10058553;28;20021;-68
2022/07/30 14:10:55;;;;;;;6.43;1.42;;;35.50;41.90;;;;;;10076158;28;20048;-67
2022/07/30 14:15:46;;;;;;;1.60;1.27;;;36.80;41.40;;;;;;10068126;28;20057;-68
2022/07/30 14:20:36;;;;;;;6.15;1.55;;;38.10;40.30;;;;;;10065758;28;20084;-67
2022/07/30 14:25:27;;;;;;;1.45;1.23;;;36.60;40.00;;;;;;10067726;28;20021;-68
2022/07/30 14:30:18;;;;;;;1.50;0.90;;;38.00;39.50;;;;;;10084804;28;20153;-67
2022/07/30 14:35:10;;;;;;;2.28;1.30;;;34.50;40.20;;;;;;10080205;28;20051;-67
2022/07/30 14:40:01;;;;;;;2.15;1.48;;;32.80;41.10;;;;;;10067637;28;20034;-67
2022/07/30 14:44:51;;;;;;;2.75;1.10;;;31.80;41.50;;;;;;10064635;28;20021;-67
2022/07/30 14:49:42;;;;;;;5.50;1.30;;;33.60;41.00;;;;;;10065136;28;20041;-67
2022/07/30 14:54:32;;;;;;;2.35;1.40;;;32.40;41.10;;;;;;10060004;28;20321;-67
2022/07/30 14:59:24;;;;;;;2.90;1.27;;;33.00;41.70;;;;;;10053915;28;20033;-68
2022/07/30 15:04:15;;;;;;;2.90;1.00;;;35.00;40.50;;;;;;10050791;28;20220;-67
2022/07/30 15:09:07;;;;;;;4.03;1.20;;;35.50;39.70;;;;;;10068449;28;20119;-66
2022/07/30 15:13:57;;;;;;;2.25;1.23;;;35.70;39.70;;;;;;10061923;28;20057;-67
2022/07/30 15:18:48;;;;;;;4.67;1.50;;;36.20;39.50;;;;;;10059956;28;20324;-66
2022/07/30 15:23:39;;;;;;;1.53;1.07;;;36.40;39.50;;;;;;10059426;28;20253;-67
2022/07/30 15:28:29;;;;;;;3.10;1.50;;;35.90;39.40;;;;;;10068559;28;20033;-67
2022/07/30 15:33:20;;;;;;;2.20;1.43;;;35.30;39.50;;;;;;10058638;28;20264;-67
2022/07/30 15:38:11;;;;;;;4.15;1.20;;;36.40;38.60;;;;;;10058914;28;20029;-67
2022/07/30 15:43:02;;;;;;;1.70;1.10;;;36.40;38.20;;;;;;10088358;28;20033;-69
2022/07/30 15:47:52;;;;;;;1.50;1.20;;;36.00;38.70;;;;;;10053469;28;20026;-68
2022/07/30 15:52:43;;;;;;;3.33;1.47;;;37.40;38.00;;;;;;10050323;28;20026;-66
2022/07/30 15:57:34;;;;;;;1.53;1.10;;;36.90;38.20;;;;;;10053219;28;20014;-67
2022/07/30 16:02:25;;;;;;;2.67;1.35;;;35.00;38.80;;;;;;10064638;28;20484;-68
2022/07/30 16:07:16;;;;;;;1.98;1.00;;;34.00;39.30;;;;;;10063988;28;20182;-67
2022/07/30 16:12:07;;;;;;;3.28;1.10;;;33.20;39.70;;;;;;10064070;28;20132;-67
2022/07/30 16:16:58;;;;;;;3.15;1.30;;;34.10;39.30;;;;;;10068715;28;20033;-67
2022/07/30 16:21:49;;;;;;;3.28;1.38;;;36.60;37.90;;;;;;10070766;28;20028;-66
2022/07/30 16:26:39;;;;;;;1.17;1.08;;;38.10;37.20;;;;;;10078928;28;20036;-67
2022/07/30 16:31:30;;;;;;;1.83;1.03;;;38.10;36.90;;;;;;10063561;28;20072;-67
2022/07/30 16:36:21;;;;;;;5.80;2.37;;;39.20;36.70;;;;;;10071332;28;20009;-67
2022/07/30 16:41:11;;;;;;;3.67;1.57;;;39.80;36.10;;;;;;10066446;28;20118;-70
2022/07/30 16:46:02;;;;;;;1.93;1.23;;;39.20;35.90;;;;;;10071520;28;20157;-66
2022/07/30 16:50:53;;;;;;;3.40;1.23;;;38.10;36.50;;;;;;10066605;28;20030;-67
2022/07/30 16:55:44;;;;;;;6.33;2.13;;;38.30;35.80;;;;;;10064641;28;20421;-67
2022/07/30 17:00:35;;;;;;;1.40;1.00;;;39.70;35.00;;;;;;10063597;28;20025;-67
2022/07/30 17:05:26;;;;;;;1.85;1.55;;;40.70;34.30;;;;;;10053126;28;20026;-69
2022/07/30 17:10:17;;;;;;;6.00;1.77;;;40.80;34.00;;;;;;10053271;28;20091;-67
2022/07/30 17:15:08;;;;;;;2.37;1.33;;;41.20;33.80;;;;;;10074342;28;20284;-67
2022/07/30 17:20:00;;;;;;;1.80;1.17;;;41.00;33.50;;;;;;10067414;28;20351;-67
2022/07/30 17:24:51;;;;;;;1.23;1.08;;;40.10;33.50;;;;;;10059524;28;20041;-66
2022/07/30 17:29:42;;;;;;;3.13;1.70;;;38.30;34.50;;;;;;10070676;28;20297;-68
2022/07/30 17:34:33;;;;;;;1.95;1.40;;;38.70;34.10;;;;;;10073316;28;20029;-66
2022/07/30 17:39:23;;;;;;;2.33;1.77;;;37.50;34.30;;;;;;10062085;28;20075;-68
2022/07/30 17:44:14;;;;;;;4.90;2.13;;;34.40;36.60;;;;;;10064444;28;20140;-67
2022/07/30 17:49:05;;;;;;;6.28;2.33;;;34.10;37.60;;;;;;10062925;28;20304;-68
2022/07/30 17:53:55;;;;;;;4.30;1.45;;;34.20;36.50;;;;;;10053099;28;20057;-67
2022/07/30 17:58:46;;;;;;;2.13;1.33;;;32.70;37.90;;;;;;10061225;28;20478;-66
2022/07/30 18:03:37;;;;;;;4.00;1.60;;;31.90;38.50;;;;;;10059077;28;20021;-66
2022/07/30 18:08:28;;;;;;;4.68;1.90;;;31.60;38.90;;;;;;10063569;28;20036;-70
2022/07/30 18:13:18;;;;;;;2.40;1.30;;;31.20;39.30;;;;;;10057011;28;20029;-67
2022/07/30 18:18:09;;;;;;;14.07;1.92;;;31.10;39.40;;;;;;10067868;28;20056;-67
2022/07/30 18:23:04;;;;;;;4.07;1.80;;;30.90;39.60;;;;;;10069868;28;20022;-68
2022/07/30 18:27:55;;;;;;;3.35;2.10;;;30.80;39.90;;;;;;10062517;28;20616;-68
2022/07/30 18:32:45;;;;;;;5.95;1.52;;;30.50;40.10;;;;;;10055273;28;20043;-67
2022/07/30 18:37:36;;;;;;;3.60;1.58;;;30.30;40.50;;;;;;10062655;28;20307;-67
2022/07/30 18:42:27;;;;;;;5.20;1.88;;;30.30;40.60;;;;;;10075393;28;20092;-67
2022/07/30 18:47:17;;;;;;;2.80;1.17;;;30.30;40.70;;;;;;10059940;28;20375;-67
2022/07/30 18:52:09;;;;;;;4.10;1.45;;;30.20;40.80;;;;;;10072484;28;20554;-68
2022/07/30 18:56:59;;;;;;;4.82;1.48;;;30.00;41.10;;;;;;10068538;28;20045;-68
2022/07/30 19:01:50;;;;;;;2.95;1.30;;;29.90;41.40;;;;;;10062549;28;20192;-68
2022/07/30 19:06:41;;;;;;;4.72;1.92;;;29.60;41.70;;;;;;10037435;28;20022;-68
2022/07/30 19:11:32;;;;;;;2.30;1.17;;;29.40;41.90;;;;;;10069501;28;20268;-68
2022/07/30 19:16:22;;;;;;;4.72;1.73;;;29.50;42.00;;;;;;10061322;28;20064;-67
2022/07/30 19:21:13;;;;;;;3.40;1.38;;;29.40;42.20;;;;;;10044312;28;20076;-67
2022/07/30 19:26:04;;;;;;;3.22;2.15;;;29.20;42.30;;;;;;10063746;28;20033;-68
2022/07/30 19:30:55;;;;;;;4.63;1.88;;;29.20;42.60;;;;;;10058679;28;20222;-68
2022/07/30 19:35:46;;;;;;;5.13;1.60;;;29.00;42.80;;;;;;10059145;28;20048;-68
2022/07/30 19:40:36;;;;;;;3.22;1.77;;;29.10;42.90;;;;;;10060090;28;20018;-69
2022/07/30 19:45:27;;;;;;;7.22;3.92;;;29.00;42.90;;;;;;10061802;28;20057;-68
2022/07/30 19:50:18;;;;;;;3.85;1.85;;;29.00;43.20;;;;;;10081692;28;20045;-69
2022/07/30 19:55:09;;;;;;;2.15;1.27;;;29.00;43.20;;;;;;10064763;28;20024;-69
2022/07/30 20:00:00;;;;;;;4.03;1.38;;;29.00;43.20;;;;;;10058046;28;20036;-68
2022/07/30 20:04:51;;;;;;;8.45;2.97;;;28.90;43.30;;;;;;10049835;28;20017;-69
2022/07/30 20:09:43;;;;;;;2.28;1.45;;;28.80;43.60;;;;;;10069974;28;20069;-66
2022/07/30 20:14:34;;;;;;;3.35;1.60;;;29.00;43.50;;;;;;10058142;28;20052;-68
2022/07/30 20:19:24;;;;;;;7.95;2.00;;;28.70;43.70;;;;;;10070756;28;20060;-67
2022/07/30 20:24:16;;;;;;;3.45;1.20;;;28.60;44.00;;;;;;10059201;28;20167;-67
2022/07/30 20:29:07;;;;;;;4.88;1.50;;;28.60;44.00;;;;;;10064611;28;20112;-69
2022/07/30 20:33:57;;;;;;;3.70;1.52;;;28.40;44.30;;;;;;10062488;28;20048;-68
2022/07/30 20:38:48;;;;;;;4.75;2.03;;;28.30;44.40;;;;;;10057755;28;20112;-68
2022/07/30 20:43:39;;;;;;;4.47;2.75;;;28.30;44.50;;;;;;10064992;28;20108;-68
2022/07/30 20:48:33;;;;;;;13.52;4.18;;;28.60;44.40;;;;;;10063665;28;20302;-68
2022/07/30 20:53:24;;;;;;;5.78;2.13;;;28.60;44.60;;;;;;10064407;28;20029;-69
2022/07/30 20:58:15;;;;;;;3.80;2.30;;;28.50;44.60;;;;;;10073668;28;20220;-68
2022/07/30 21:03:05;;;;;;;4.25;1.88;;;28.40;44.70;;;;;;10065964;28;20057;-67
2022/07/30 21:07:56;;;;;;;4.38;2.40;;;28.50;44.80;;;;;;10068836;28;20042;-67
2022/07/30 21:12:47;;;;;;;3.63;1.92;;;28.40;44.90;;;;;;10058736;28;20291;-68
2022/07/30 21:17:38;;;;;;;4.80;1.85;;;28.20;45.10;;;;;;10062705;28;20120;-67
2022/07/30 21:22:28;;;;;;;4.57;1.55;;;28.30;45.30;;;;;;10071183;28;20037;-68
2022/07/30 21:27:19;;;;;;;4.93;1.63;;;28.20;45.30;;;;;;10064401;28;20030;-67
2022/07/30 21:32:10;;;;;;;2.45;1.80;;;28.10;45.50;;;;;;10062139;28;20029;-68
2022/07/30 21:37:00;;;;;;;5.55;1.60;;;28.20;45.60;;;;;;10069410;28;20486;-67
2022/07/30 21:41:51;;;;;;;2.70;1.33;;;28.00;45.70;;;;;;10065113;28;20029;-66
2022/07/30 21:46:43;;;;;;;2.97;1.60;;;27.90;45.90;;;;;;10069078;28;20025;-67
2022/07/30 21:51:33;;;;;;;3.55;1.38;;;27.80;46.10;;;;;;10068329;28;20231;-67
2022/07/30 21:56:24;;;;;;;2.45;1.20;;;27.60;46.30;;;;;;10060637;28;20197;-67
2022/07/30 22:01:20;;;;;;;4.85;2.15;;;27.50;46.50;;;;;;10067390;28;20081;-67
2022/07/30 22:06:11;;;;;;;2.33;1.45;;;27.40;46.60;;;;;;10057816;28;20024;-68
2022/07/30 22:11:01;;;;;;;2.30;1.42;;;27.50;46.80;;;;;;10064193;28;20048;-68
2022/07/30 22:15:52;;;;;;;2.10;1.65;;;27.40;46.80;;;;;;10070341;28;20356;-68
2022/07/30 22:20:43;;;;;;;1.48;1.38;;;27.30;47.10;;;;;;10073880;28;20036;-68
2022/07/30 22:25:35;;;;;;;4.57;1.42;;;27.00;47.50;;;;;;10070502;28;20052;-67
2022/07/30 22:30:28;;;;;;;1.75;1.08;;;27.10;47.60;;;;;;10048558;28;20033;-69
2022/07/30 22:35:19;;;;;;;1.92;1.35;;;27.10;47.60;;;;;;10059200;28;20220;-68
2022/07/30 22:40:10;;;;;;;1.98;1.50;;;27.10;47.60;;;;;;10066652;28;20034;-67
2022/07/30 22:45:01;;;;;;;1.98;1.30;;;27.10;47.80;;;;;;10053679;28;20248;-67
2022/07/30 22:49:52;;;;;;;2.92;2.05;;;27.10;47.80;;;;;;10061691;28;20075;-67
2022/07/30 22:54:43;;;;;;;4.20;1.60;;;27.00;47.90;;;;;;10055167;28;20018;-68
2022/07/30 22:59:34;;;;;;;3.45;1.23;;;27.00;48.30;;;;;;10062677;28;20104;-68
2022/07/30 23:04:25;;;;;;;2.50;1.60;;;27.00;48.40;;;;;;10057552;28;20244;-68
2022/07/30 23:09:15;;;;;;;1.88;1.30;;;26.80;48.70;;;;;;10052616;28;20070;-68
2022/07/30 23:14:08;;;;;;;3.47;1.80;;;26.70;49.00;;;;;;10068386;28;20080;-69
2022/07/30 23:18:58;;;;;;;1.90;1.17;;;26.80;49.10;;;;;;10062793;28;20039;-67
2022/07/30 23:23:49;;;;;;;3.45;1.20;;;26.70;49.10;;;;;;10063527;28;20014;-68
2022/07/30 23:28:40;;;;;;;2.15;1.10;;;26.80;49.10;;;;;;10064318;28;20043;-67
2022/07/30 23:33:31;;;;;;;4.72;1.20;;;26.80;49.10;;;;;;10071950;28;20017;-68
2022/07/30 23:38:23;;;;;;;2.20;1.10;;;26.60;49.30;;;;;;10063322;28;20057;-68
2022/07/30 23:43:14;;;;;;;1.30;1.13;;;26.70;49.30;;;;;;10056257;28;20030;-68
2022/07/30 23:48:05;;;;;;;1.23;0.95;;;26.50;49.40;;;;;;10057068;28;20315;-67
2022/07/30 23:52:55;;;;;;;2.55;1.00;;;26.40;49.60;;;;;;10062597;28;20132;-68
2022/07/30 23:57:46;;;;;;;2.22;1.30;;;26.30;49.60;;;;;;10060381;28;20585;-67
